createdAt,value
2022-12-08T00:02:34.818Z,1.27
2022-12-08T00:07:59.204Z,1.47
2022-12-08T00:13:03.959Z,1.43
2022-12-08T00:18:08.239Z,1.67
2022-12-08T00:23:13.779Z,1.32
2022-12-08T00:28:17.816Z,1.32
2022-12-08T00:33:22.064Z,1.38
2022-12-08T00:38:27.510Z,1.45
2022-12-08T00:43:31.645Z,1.70
2022-12-08T00:48:35.985Z,1.64
2022-12-08T00:53:41.363Z,1.64
2022-12-08T00:58:45.385Z,1.65
2022-12-08T01:03:49.857Z,1.18
2022-12-08T01:08:55.445Z,1.42
2022-12-08T01:13:59.451Z,1.19
2022-12-08T01:19:04.002Z,1.11
2022-12-08T01:24:12.500Z,0.87
2022-12-08T01:29:17.013Z,0.75
2022-12-08T01:34:21.135Z,0.34
2022-12-08T01:39:27.048Z,0.25
2022-12-08T01:45:01.363Z,0.18
2022-12-08T01:50:10.211Z,0.19
2022-12-08T01:55:20.129Z,-0.03
2022-12-08T02:00:24.631Z,0.11
2022-12-08T02:05:31.449Z,0.49
2022-12-08T02:10:39.628Z,0.45
2022-12-08T02:15:51.157Z,0.43
2022-12-08T02:21:03.728Z,0.26
2022-12-08T02:26:39.729Z,0.03
2022-12-08T02:31:57.870Z,0.24
2022-12-08T02:37:11.295Z,0.24
2022-12-08T02:42:24.239Z,0.24
2022-12-08T02:47:29.548Z,0.26
2022-12-08T02:52:45.858Z,0.34
2022-12-08T02:58:16.337Z,0.15
2022-12-08T03:03:29.628Z,0.25
2022-12-08T03:08:43.514Z,0.27
2022-12-08T03:13:52.396Z,0.08
2022-12-08T03:19:03.003Z,-0.11
2022-12-08T03:24:11.226Z,-0.27
2022-12-08T03:29:15.959Z,-0.12
2022-12-08T03:34:21.246Z,-0.41
2022-12-08T03:39:26.645Z,-0.14
2022-12-08T03:44:30.605Z,-0.41
2022-12-08T03:49:34.618Z,-0.34
2022-12-08T03:54:40.481Z,-0.41
2022-12-08T03:59:44.740Z,-0.37
2022-12-08T04:04:48.808Z,-0.35
2022-12-08T04:09:54.364Z,-0.25
2022-12-08T04:14:58.428Z,-0.04
2022-12-08T04:20:02.840Z,0.15
2022-12-08T04:25:09.756Z,0.20
2022-12-08T04:30:14.087Z,0.22
2022-12-08T04:35:18.225Z,-0.05
2022-12-08T04:40:23.913Z,0.29
2022-12-08T04:45:28.023Z,0.36
2022-12-08T04:50:32.069Z,0.41
2022-12-08T04:55:40.599Z,-0.11
2022-12-08T05:00:45.326Z,-0.33
2022-12-08T05:05:49.368Z,-0.35
2022-12-08T05:10:54.800Z,-0.18
2022-12-08T05:16:04.807Z,-0.28
2022-12-08T05:21:10.413Z,-0.59
2022-12-08T05:26:15.894Z,-0.21
2022-12-08T05:31:20.287Z,-1.08
2022-12-08T05:36:24.371Z,-1.04
2022-12-08T05:41:30.168Z,-0.55
2022-12-08T05:46:34.672Z,-0.87
2022-12-08T05:51:38.679Z,-0.60
2022-12-08T05:56:44.255Z,-0.29
2022-12-08T06:01:48.407Z,0.20
2022-12-08T06:06:52.519Z,0.30
2022-12-08T06:11:57.995Z,0.56
2022-12-08T06:17:02.142Z,0.86
2022-12-08T06:22:06.230Z,1.22
2022-12-08T06:27:11.989Z,1.66
2022-12-08T06:32:16.068Z,1.66
2022-12-08T06:37:20.467Z,1.69
2022-12-08T06:42:43.115Z,1.40
2022-12-08T06:47:47.467Z,1.31
2022-12-08T06:53:01.112Z,1.24
2022-12-08T06:58:09.912Z,1.35
2022-12-08T07:03:14.817Z,1.13
2022-12-08T07:08:18.922Z,1.38
2022-12-08T07:13:24.354Z,1.41
2022-12-08T07:18:28.275Z,1.32
2022-12-08T07:23:32.825Z,1.38
2022-12-08T07:28:40.187Z,1.80
2022-12-08T07:33:44.134Z,2.58
2022-12-08T07:38:48.220Z,3.17
2022-12-08T07:43:54.011Z,3.84
2022-12-08T07:48:58.878Z,4.58
2022-12-08T07:54:02.897Z,5.71
2022-12-08T07:59:08.449Z,5.75
2022-12-08T08:04:12.641Z,5.59
2022-12-08T08:09:16.685Z,5.00
2022-12-08T08:14:22.395Z,4.69
2022-12-08T08:19:26.404Z,4.88
2022-12-08T08:24:30.521Z,5.25
2022-12-08T08:29:35.982Z,6.27
2022-12-08T08:34:40.346Z,6.43
2022-12-08T08:39:44.608Z,7.75
2022-12-08T08:44:50.049Z,8.28
2022-12-08T08:49:54.060Z,5.93
2022-12-08T08:54:58.068Z,6.10
2022-12-08T09:00:04.374Z,6.53
2022-12-08T09:05:09.602Z,5.50
2022-12-08T09:10:13.686Z,5.19
2022-12-08T09:15:20.846Z,4.77
2022-12-08T09:20:24.926Z,5.41
2022-12-08T09:25:29.618Z,5.65
2022-12-08T09:30:34.928Z,6.78
2022-12-08T09:35:39.015Z,7.43
2022-12-08T09:40:50.088Z,7.90
2022-12-08T09:45:56.520Z,6.37
2022-12-08T09:51:00.484Z,6.16
2022-12-08T09:56:08.073Z,5.64
2022-12-08T10:01:13.662Z,5.66
2022-12-08T10:06:23.943Z,5.63
2022-12-08T10:11:33.605Z,6.60
2022-12-08T10:16:42.310Z,7.53
2022-12-08T10:21:47.731Z,8.04
2022-12-08T10:26:51.814Z,9.32
2022-12-08T10:31:58.525Z,8.99
2022-12-08T10:37:11.164Z,9.12
2022-12-08T10:42:21.561Z,8.99
2022-12-08T10:47:29.036Z,8.88
2022-12-08T10:52:32.817Z,9.83
2022-12-08T10:57:40.091Z,10.61
2022-12-08T11:03:00.333Z,11.55
2022-12-08T11:08:06.468Z,11.45
2022-12-08T11:13:22.801Z,10.88
2022-12-08T11:18:30.750Z,10.13
2022-12-08T11:23:37.771Z,9.38
2022-12-08T11:28:42.060Z,9.25
2022-12-08T11:33:48.636Z,9.23
2022-12-08T11:38:58.308Z,9.66
2022-12-08T11:44:11.910Z,9.07
2022-12-08T11:49:18.209Z,8.77
2022-12-08T11:54:25.331Z,8.77
2022-12-08T11:59:33.556Z,9.38
2022-12-08T12:04:44.901Z,9.32
2022-12-08T12:10:13.941Z,9.91
2022-12-08T12:15:34.209Z,9.21
2022-12-08T12:20:47.226Z,8.98
2022-12-08T12:25:57.354Z,9.72
2022-12-08T12:31:06.995Z,10.16
2022-12-08T12:36:14.354Z,9.61
2022-12-08T12:41:25.691Z,9.81
2022-12-08T12:46:54.564Z,9.46
2022-12-08T12:52:00.064Z,9.22
2022-12-08T12:57:22.571Z,8.98
2022-12-08T13:02:28.830Z,9.07
2022-12-08T13:07:37.550Z,9.28
2022-12-08T13:12:42.079Z,9.72
2022-12-08T13:17:48.167Z,9.52
2022-12-08T13:23:26.287Z,9.58
2022-12-08T13:28:32.157Z,9.29
2022-12-08T13:33:40.955Z,9.08
2022-12-08T13:38:48.451Z,8.36
2022-12-08T13:51:00.592Z,7.30
2022-12-08T14:00:24.377Z,7.30
2022-12-08T14:06:10.309Z,6.99
2022-12-08T14:11:07.645Z,6.72
2022-12-08T14:16:27.942Z,6.86
2022-12-08T14:21:36.023Z,6.70
2022-12-08T14:26:41.877Z,6.40
2022-12-08T14:31:46.140Z,6.52
2022-12-08T14:36:52.576Z,6.08
2022-12-08T14:42:02.415Z,6.32
2022-12-08T14:47:08.589Z,6.03
2022-12-08T14:52:13.071Z,5.72
2022-12-08T14:57:20.798Z,5.45
2022-12-08T15:02:32.984Z,5.42
2022-12-08T15:07:48.889Z,5.16
2022-12-08T15:13:22.157Z,4.99
2022-12-08T15:18:33.632Z,5.03
2022-12-08T15:23:45.014Z,4.92
2022-12-08T15:28:50.724Z,4.71
2022-12-08T15:33:54.812Z,4.36
2022-12-08T15:38:58.979Z,4.44
2022-12-08T15:44:04.531Z,4.40
2022-12-08T15:49:17.253Z,4.07
2022-12-08T15:54:21.217Z,4.11
2022-12-08T15:59:26.860Z,4.11
2022-12-08T16:05:25.289Z,4.00
2022-12-08T16:09:55.530Z,3.97
2022-12-08T16:15:48.504Z,3.91
2022-12-08T16:20:43.898Z,3.84
2022-12-08T16:26:16.737Z,3.68
2022-12-08T16:31:20.129Z,3.66
2022-12-08T16:36:26.863Z,3.62
2022-12-08T16:41:48.984Z,3.82
2022-12-08T16:46:54.359Z,3.86
2022-12-08T16:51:58.932Z,3.86
2022-12-08T16:57:03.293Z,3.77
2022-12-08T17:02:13.655Z,3.82
2022-12-08T17:07:20.256Z,4.03
2022-12-08T17:12:24.225Z,3.78
2022-12-08T17:17:29.602Z,3.75
2022-12-08T17:22:33.786Z,3.63
2022-12-08T17:27:38.672Z,3.59
2022-12-08T17:32:44.666Z,3.51
2022-12-08T17:37:48.989Z,3.70
2022-12-08T17:42:53.336Z,3.49
2022-12-08T17:47:58.772Z,3.34
2022-12-08T17:53:02.806Z,3.47
2022-12-08T17:58:07.245Z,3.48
2022-12-08T18:03:13.107Z,3.55
2022-12-08T18:08:17.349Z,3.42
2022-12-08T18:13:21.463Z,3.27
2022-12-08T18:18:26.932Z,3.30
2022-12-08T18:23:30.977Z,3.54
2022-12-08T18:28:35.851Z,3.42
2022-12-08T18:33:44.322Z,3.44
2022-12-08T18:38:48.691Z,3.19
2022-12-08T18:43:53.069Z,3.06
2022-12-08T18:48:59.835Z,3.24
2022-12-08T18:54:03.982Z,3.54
2022-12-08T18:59:12.728Z,3.65
2022-12-08T19:04:38.548Z,3.42
2022-12-08T19:09:43.724Z,3.48
2022-12-08T19:14:47.789Z,3.14
2022-12-08T19:19:53.357Z,2.97
2022-12-08T19:24:57.508Z,3.21
2022-12-08T19:30:01.818Z,3.06
2022-12-08T19:35:08.288Z,3.15
2022-12-08T19:40:32.348Z,3.08
2022-12-08T19:45:37.747Z,2.95
2022-12-08T19:50:43.292Z,2.99
2022-12-08T19:55:48.536Z,3.37
2022-12-08T20:00:52.801Z,3.11
2022-12-08T20:05:58.200Z,3.04
2022-12-08T20:11:02.339Z,3.52
2022-12-08T20:16:07.074Z,3.19
2022-12-08T20:21:13.422Z,3.24
2022-12-08T20:26:19.413Z,3.35
2022-12-08T20:31:25.653Z,3.42
2022-12-08T20:36:31.561Z,3.33
2022-12-08T20:41:39.104Z,3.72
2022-12-08T20:46:49.072Z,3.72
2022-12-08T20:51:55.060Z,3.61
2022-12-08T20:56:59.112Z,3.53
2022-12-08T21:02:03.221Z,3.69
2022-12-08T21:07:09.546Z,3.67
2022-12-08T21:12:13.627Z,3.90
2022-12-08T21:17:17.793Z,3.78
2022-12-08T21:22:23.651Z,3.71
2022-12-08T21:27:27.827Z,3.29
2022-12-08T21:32:32.014Z,3.61
2022-12-08T21:37:38.120Z,3.18
2022-12-08T21:42:45.550Z,3.48
2022-12-08T21:47:50.824Z,3.53
2022-12-08T21:52:56.809Z,3.62
2022-12-08T21:58:02.303Z,3.45
2022-12-08T22:03:08.000Z,3.34
2022-12-08T22:08:13.967Z,3.33
2022-12-08T22:13:18.874Z,3.46
2022-12-08T22:18:23.167Z,3.59
2022-12-08T22:23:30.115Z,3.21
2022-12-08T22:28:37.420Z,3.35
2022-12-08T22:33:41.936Z,3.29
2022-12-08T22:38:47.935Z,3.25
2022-12-08T22:43:52.597Z,3.32
2022-12-08T22:48:56.681Z,3.37
2022-12-08T22:54:02.191Z,3.64
2022-12-08T22:59:06.657Z,3.25
2022-12-08T23:04:17.444Z,3.16
2022-12-08T23:09:23.980Z,3.36
2022-12-08T23:14:28.008Z,3.28
2022-12-08T23:19:32.328Z,3.13
2022-12-08T23:24:38.079Z,3.48
2022-12-08T23:29:42.273Z,3.58
2022-12-08T23:34:46.988Z,3.30
2022-12-08T23:39:52.861Z,3.30
2022-12-08T23:44:57.070Z,3.53
2022-12-08T23:50:01.400Z,3.53
2022-12-08T23:55:08.365Z,3.40
